Ravalli County (6S5)
Hamilton, MT
Field Elevation: 3642
Lat: 45°15.05N  Long: 114°07.31W
CTAF/Unicom Freq: 122.8000
   
     For Weather-by-Phone, call 406-375-9149
Weather Advisories
7/25/2014 00:36 Z
Altimeter 30.06" Hg
Wind 270° @ 7 KT
Gusts 15 KT
Visibility 10 SM
Temperature 22° C (72° F)
Dewpoint 1° C (34° F)
Relative Humidity 26%
Density Altitude 5,100 feet
Condensation Altitude 13,900 feet
  Wind and Runways
Indicated Runway = 34
History
 
 
More Info
All DigiWx sites map
NOAA Forecast
 
Airport IQ 5010
(S59) Libby
(79S) Fort Benton
 
about DigiWx
 
FAA Disclaimer: The data displayed is for advisory purposes only and is not to be used for flight planning or operations. For official data, please call 406-375-9149 to hear the current automated AWOS voice message.
  METAR 6S5 250036Z AUTO 27007G15KT 10SM 22/01 A3006